createdAt,value
2018-12-24T00:00:17.384Z,4.8
2018-12-24T00:05:17.520Z,5.7
2018-12-24T00:10:17.906Z,5.8
2018-12-24T00:15:22.003Z,5.3
2018-12-24T00:20:17.082Z,6.2
2018-12-24T00:25:22.012Z,5.6
2018-12-24T00:30:16.903Z,6.3
2018-12-24T00:35:16.815Z,6.4
2018-12-24T00:40:16.932Z,6.4
2018-12-24T00:45:16.851Z,6.2
2018-12-24T00:50:17.893Z,3.6
2018-12-24T00:55:17.793Z,6.8
2018-12-24T01:00:18.182Z,6
2018-12-24T01:05:17.379Z,6.6
2018-12-24T01:10:17.653Z,6.3
2018-12-24T01:15:17.540Z,3.7
2018-12-24T01:20:17.619Z,6
2018-12-24T01:25:17.522Z,5.8
2018-12-24T01:30:17.441Z,5.8
2018-12-24T01:35:17.587Z,5.4
2018-12-24T01:40:22.979Z,5
2018-12-24T01:45:16.887Z,2.9
2018-12-24T01:50:17.887Z,1.8
2018-12-24T01:55:17.928Z,3
2018-12-24T02:00:16.879Z,2.9
2018-12-24T02:05:23.058Z,4.2
2018-12-24T02:10:17.359Z,3.5
2018-12-24T02:15:18.195Z,4.9
2018-12-24T02:20:17.507Z,5
2018-12-24T02:25:17.716Z,4.1
2018-12-24T02:30:22.680Z,6.3
2018-12-24T02:35:18.854Z,7.2
2018-12-24T02:40:16.924Z,4
2018-12-24T02:45:21.865Z,7.6
2018-12-24T02:50:17.814Z,6.9
2018-12-24T02:55:17.703Z,6.1
2018-12-24T03:00:17.993Z,8.2
2018-12-24T03:05:17.205Z,8.2
2018-12-24T03:10:17.413Z,8.5
2018-12-24T03:15:17.593Z,8.5
2018-12-24T03:20:17.823Z,6.2
2018-12-24T03:25:17.982Z,8.4
2018-12-24T03:30:18.763Z,7.4
2018-12-24T03:35:17.770Z,6.7
2018-12-24T03:40:17.084Z,7.7
2018-12-24T03:45:22.020Z,6.7
2018-12-24T03:50:17.180Z,6.2
2018-12-24T03:55:17.449Z,6.6
2018-12-24T04:00:17.783Z,5.5
2018-12-24T04:05:17.928Z,6.3
2018-12-24T04:10:17.267Z,6.2
2018-12-24T04:15:22.288Z,5.6
2018-12-24T04:20:17.578Z,4.4
2018-12-24T04:25:17.940Z,4.7
2018-12-24T04:30:17.075Z,2.9
2018-12-24T04:35:16.968Z,2.5
2018-12-24T04:40:17.045Z,4.2
2018-12-24T04:45:16.947Z,3.7
2018-12-24T04:50:16.821Z,2.5
2018-12-24T04:55:17.719Z,2.6
2018-12-24T05:00:17.886Z,2.4
2018-12-24T05:05:17.764Z,3.7
2018-12-24T05:10:17.244Z,3.5
2018-12-24T05:15:17.294Z,1.4
2018-12-24T05:20:17.494Z,2.6
2018-12-24T05:25:17.366Z,4.4
2018-12-24T05:30:17.272Z,2
2018-12-24T05:35:17.151Z,3.8
2018-12-24T05:40:17.382Z,1.8
2018-12-24T05:45:17.271Z,2.4
2018-12-24T05:50:18.256Z,1.6
2018-12-24T05:55:17.151Z,3.3
2018-12-24T06:00:17.341Z,1.9
2018-12-24T06:05:17.513Z,1.5
2018-12-24T06:10:18.100Z,2.9
2018-12-24T06:15:17.119Z,2.7
2018-12-24T06:20:17.275Z,2.1
2018-12-24T06:25:17.601Z,3.8
2018-12-24T06:30:17.522Z,4.1
2018-12-24T06:35:17.413Z,3.9
2018-12-24T06:40:17.550Z,5.1
2018-12-24T06:45:17.470Z,3
2018-12-24T06:50:22.413Z,2.4
2018-12-24T06:55:17.378Z,2.1
2018-12-24T07:00:17.290Z,2.9
2018-12-24T07:05:17.379Z,2.7
2018-12-24T07:10:17.856Z,1.6
2018-12-24T07:15:22.815Z,2
2018-12-24T07:20:16.893Z,2
2018-12-24T07:25:18.028Z,2
2018-12-24T07:30:16.946Z,2.8
2018-12-24T07:35:17.311Z,2.7
2018-12-24T07:40:17.629Z,3.8
2018-12-24T07:45:17.923Z,3.2
2018-12-24T07:50:16.993Z,2.2
2018-12-24T07:55:17.164Z,2.7
2018-12-24T08:00:17.292Z,3.9
2018-12-24T08:05:17.184Z,1.7
2018-12-24T08:10:17.714Z,2.2
2018-12-24T08:15:17.906Z,1.7
2018-12-24T08:20:17.313Z,1.6
2018-12-24T08:25:17.312Z,2.1
2018-12-24T08:30:17.330Z,2.4
2018-12-24T08:35:17.233Z,4.8
2018-12-24T08:40:17.330Z,2.8
2018-12-24T08:45:17.355Z,3.7
2018-12-24T08:50:17.411Z,3.8
2018-12-24T08:55:17.311Z,2.2
2018-12-24T09:00:17.269Z,5.5
2018-12-24T09:05:17.458Z,6.3
2018-12-24T09:10:17.929Z,5.2
2018-12-24T09:15:16.943Z,3.2
2018-12-24T09:20:17.242Z,6.7
2018-12-24T09:25:17.693Z,4.2
2018-12-24T09:30:17.927Z,5.1
2018-12-24T09:35:17.041Z,3.6
2018-12-24T09:40:17.452Z,6.3
2018-12-24T09:45:22.469Z,5.1
2018-12-24T09:50:17.415Z,5.2
2018-12-24T09:55:17.797Z,4.2
2018-12-24T10:00:17.897Z,5
2018-12-24T10:05:18.125Z,3.9
2018-12-24T10:10:17.399Z,3.9
2018-12-24T10:15:17.418Z,3.1
2018-12-24T10:20:17.514Z,4.4
2018-12-24T10:25:17.373Z,6.8
2018-12-24T10:30:17.424Z,4.2
2018-12-24T10:35:17.317Z,4.9
2018-12-24T10:40:17.405Z,5.1
2018-12-24T10:45:17.325Z,4.3
2018-12-24T10:50:17.201Z,2.9
2018-12-24T10:55:17.091Z,2.1
2018-12-24T11:00:17.012Z,2.5
2018-12-24T11:05:17.049Z,3
2018-12-24T11:10:17.172Z,4.5
2018-12-24T11:15:25.505Z,2.8
2018-12-24T11:20:22.710Z,3.3
2018-12-24T11:25:17.720Z,3.3
2018-12-24T11:30:17.940Z,4.2
2018-12-24T11:35:17.150Z,4.5
2018-12-24T11:40:17.469Z,3.2
2018-12-24T11:45:17.617Z,4.9
2018-12-24T11:50:17.278Z,4.5
2018-12-24T11:55:17.298Z,4.2
2018-12-24T12:00:17.351Z,4.3
2018-12-24T12:05:17.319Z,4.2
2018-12-24T12:10:18.859Z,4.1
2018-12-24T12:15:17.916Z,3.9
2018-12-24T12:20:17.228Z,3.8
2018-12-24T12:25:17.568Z,3.5
2018-12-24T12:30:17.959Z,3.5
2018-12-24T12:35:17.167Z,3.4
2018-12-24T12:40:17.439Z,2.6
2018-12-24T12:45:17.347Z,3.4
2018-12-24T12:50:17.478Z,3.6
2018-12-24T12:55:17.383Z,3.3
2018-12-24T13:00:17.292Z,3
2018-12-24T13:05:18.314Z,2.5
2018-12-24T13:10:17.456Z,1.4
2018-12-24T13:15:17.336Z,1.8
2018-12-24T13:20:25.404Z,1.4
2018-12-24T13:25:17.292Z,2
2018-12-24T13:30:17.202Z,3.6
2018-12-24T13:35:17.082Z,1.3
2018-12-24T13:40:17.299Z,2.4
2018-12-24T13:45:17.522Z,2.3
2018-12-24T13:50:17.420Z,2.8
2018-12-24T13:55:17.419Z,3.1
2018-12-24T14:00:17.359Z,2.1
2018-12-24T14:05:17.270Z,1.8
2018-12-24T14:10:17.367Z,3.3
2018-12-24T14:15:17.450Z,2.6
2018-12-24T14:20:17.508Z,2.3
2018-12-24T14:25:17.690Z,2.6
2018-12-24T14:30:17.789Z,1.9
2018-12-24T14:35:22.718Z,3.1
2018-12-24T14:40:17.100Z,2.6
2018-12-24T14:45:17.270Z,3
2018-12-24T14:50:17.457Z,4.3
2018-12-24T14:55:22.778Z,3.4
2018-12-24T15:00:17.837Z,3.6
2018-12-24T15:05:17.999Z,3.5
2018-12-24T15:10:17.277Z,2.3
2018-12-24T15:15:17.335Z,2.2
2018-12-24T15:20:17.639Z,2.9
2018-12-24T15:25:17.774Z,3.9
2018-12-24T15:30:17.794Z,5.4
2018-12-24T15:35:17.832Z,5.7
2018-12-24T15:40:16.904Z,4.7
2018-12-24T15:45:16.893Z,3.4
2018-12-24T15:50:18.011Z,5.4
2018-12-24T15:55:16.963Z,3.5
2018-12-24T16:00:17.213Z,4.3
2018-12-24T16:05:22.239Z,2.4
2018-12-24T16:10:17.302Z,3.6
2018-12-24T16:15:17.210Z,2.9
2018-12-24T16:20:17.559Z,3.7
2018-12-24T16:25:17.539Z,3.8
2018-12-24T16:30:17.738Z,2.9
2018-12-24T16:35:22.649Z,3.4
2018-12-24T16:40:18.071Z,3.9
2018-12-24T16:45:17.327Z,2.3
2018-12-24T16:50:17.208Z,3.2
2018-12-24T16:55:22.316Z,1.8
2018-12-24T17:00:17.679Z,2.8
2018-12-24T17:05:17.645Z,6.1
2018-12-24T17:10:17.935Z,2.5
2018-12-24T17:15:17.405Z,2.7
2018-12-24T17:20:17.693Z,3.2
2018-12-24T17:25:17.593Z,3.7
2018-12-24T17:30:17.922Z,3.4
2018-12-24T17:35:16.935Z,3.7
2018-12-24T17:40:17.274Z,2.7
2018-12-24T17:45:17.154Z,3.1
2018-12-24T17:50:17.014Z,4.6
2018-12-24T17:55:18.221Z,1.4
2018-12-24T18:00:17.111Z,2.8
2018-12-24T18:05:16.983Z,3.6
2018-12-24T18:10:17.060Z,1.8
2018-12-24T18:15:16.940Z,2.9
2018-12-24T18:20:17.343Z,1.4
2018-12-24T18:25:17.789Z,5.2
2018-12-24T18:30:17.999Z,3.9
2018-12-24T18:35:16.900Z,4.1
2018-12-24T18:40:22.129Z,4.1
2018-12-24T18:45:22.477Z,1.8
2018-12-24T18:50:17.557Z,2.5
2018-12-24T18:55:17.637Z,5.6
2018-12-24T19:00:17.748Z,2
2018-12-24T19:05:17.799Z,5.3
2018-12-24T19:10:17.087Z,3
2018-12-24T19:15:22.025Z,3.1
2018-12-24T19:20:17.345Z,3.6
2018-12-24T19:25:17.674Z,3.7
2018-12-24T19:30:17.804Z,2
2018-12-24T19:35:17.782Z,3.1
2018-12-24T19:40:16.873Z,2.9
2018-12-24T19:45:17.864Z,2.1
2018-12-24T19:50:18.881Z,2
2018-12-24T19:55:17.751Z,1.7
2018-12-24T20:00:17.672Z,1.3
2018-12-24T20:05:17.581Z,3.4
2018-12-24T20:10:17.673Z,2.9
2018-12-24T20:15:17.551Z,1
2018-12-24T20:20:17.589Z,2
2018-12-24T20:25:17.501Z,1.1
2018-12-24T20:30:17.360Z,2.6
2018-12-24T20:35:17.541Z,2.8
2018-12-24T20:40:17.761Z,1.7
2018-12-24T20:45:17.861Z,3.7
2018-12-24T20:50:18.187Z,1.1
2018-12-24T20:55:17.218Z,3.3
2018-12-24T21:00:17.421Z,1.5
2018-12-24T21:05:17.539Z,1.6
2018-12-24T21:10:17.766Z,1.4
2018-12-24T21:15:17.923Z,0.8
2018-12-24T21:20:17.247Z,0.2
2018-12-24T21:25:17.326Z,1.4
2018-12-24T21:30:17.496Z,0.7
2018-12-24T21:35:17.607Z,1.4
2018-12-24T21:40:17.805Z,1.5
2018-12-24T21:45:17.704Z,0.6
2018-12-24T21:50:17.583Z,1.7
2018-12-24T21:55:17.564Z,1.5
2018-12-24T22:00:17.455Z,0.7
2018-12-24T22:05:17.333Z,0.4
2018-12-24T22:10:17.442Z,0.9
2018-12-24T22:15:17.293Z,0.8
2018-12-24T22:20:17.351Z,0.9
2018-12-24T22:25:17.231Z,1
2018-12-24T22:30:17.110Z,0.8
2018-12-24T22:35:17.040Z,0.8
2018-12-24T22:40:17.540Z,1.6
2018-12-24T22:45:17.603Z,1
2018-12-24T22:50:17.502Z,0.9
2018-12-24T22:55:17.502Z,1.8
2018-12-24T23:00:17.710Z,3.8
2018-12-24T23:05:17.811Z,1
2018-12-24T23:10:17.158Z,1.3
2018-12-24T23:15:17.130Z,1
2018-12-24T23:20:17.307Z,1.2
2018-12-24T23:25:17.507Z,0.9
2018-12-24T23:30:17.656Z,0.5
2018-12-24T23:35:17.947Z,3.1
2018-12-24T23:40:17.195Z,2.1
2018-12-24T23:45:17.376Z,1.2
2018-12-24T23:50:17.376Z,0.3
2018-12-24T23:55:17.316Z,2.7
